Have a Safe July 4th! 

Flight Track Log - Related Links

Times and Time Zones

All times are in EDT time to prevent confusion due to time zone crossing. See the N3801T flight status page for this flight to view local times or setup timezone preferences in your user account.

Time Position Orientation Groundspeed Altitude Reporting Facility
EDT Latitude Longitude Course Direction KTS MPH feet Rate Location/Type
Sat 03:33:46 PM 45.0167 -93.0500 340° North 115 132 3,100  Level Minneapolis TRACON
Sat 03:34:40 PM 45.0333 -93.0500 360° North 116 133 3,600 483 Climbing Minneapolis TRACON
Sat 03:35:13 PM 45.0517 -93.0603 338° Northwest 114 131 3,800 191 Climbing Minneapolis Center
Sat 03:36:14 PM 45.0675 -93.1028 298° West 132 152 3,900 49 Climbing Minneapolis Center
Sat 03:37:16 PM 45.0964 -93.1567 307° West 144 166 3,900  Level Minneapolis Center
Sat 03:38:17 PM 45.1081 -93.2106 287° West 146 168 3,900  Level Minneapolis Center
Sat 03:39:00 PM 45.2305 -93.4176 340° North  Level FlightAware Approximate
Sat 03:39:19 PM 45.1197 -93.2650 287° West 145 167 3,900  Level Minneapolis Center
Sat 03:40:20 PM 45.1347 -93.3172 292° West 145 167 3,900  Level Minneapolis Center
Sat 03:41:21 PM 45.1525 -93.3675 297° West 144 166 3,900 -49 Level Minneapolis Center
Sat 03:42:23 PM 45.1911 -93.3914 336° Northwest 150 173 3,800  Descending Minneapolis Center
Sat 03:43:24 PM 45.2250 -93.4181 331° Northwest 141 162 3,900  Climbing Minneapolis Center
Sat 03:44:26 PM 45.2731 -93.4286 351° North 144 166 3,800 -49 Descending Minneapolis Center
Sat 03:45:27 PM 45.3106 -93.4425 345° North 142 163 3,800 49 Level Minneapolis Center
Sat 03:46:29 PM 45.3458 -93.4683 333° Northwest 142 163 3,900 49 Climbing Minneapolis Center
Sat 03:47:30 PM 45.3819 -93.4917 336° Northwest 142 163 3,900  Level Minneapolis Center
Sat 03:48:31 PM 45.4189 -93.5169 334° Northwest 147 169 3,900  Level Minneapolis Center
Sat 03:49:33 PM 45.4569 -93.5389 338° Northwest 149 171 3,900  Level Minneapolis Center
Sat 03:50:34 PM 45.4931 -93.5672 331° Northwest 149 171 3,900 -98 Level Minneapolis Center
Sat 03:51:36 PM 45.5381 -93.5972 335° Northwest 151 174 3,700 -341 Descending Minneapolis Center
Sat 03:52:37 PM 45.5744 -93.6103 346° North 142 163 3,200 -341 Descending Minneapolis Center
Sat 03:53:39 PM 45.6028 -93.6328 331° Northwest 122 140 3,000 -195 Descending Minneapolis Center
Sat 03:54:40 PM 45.6161 -93.6750 294° West 114 131 2,800 -49 Descending Minneapolis Center
Sat 03:55:41 PM 45.6350 -93.6836 342° North 114 131 2,900 -49 Climbing Minneapolis Center
Sat 03:56:43 PM 45.6256 -93.6500 112° Southeast 103 119 2,700 -293 Descending Minneapolis Center
Sat 03:57:44 PM 45.5942 -93.6353 162° South 105 121 2,300 -393 Descending Minneapolis Center

Login

Don't have an account? Register now (free) for customized features, flight alerts, and more!